Time;durP1;ratioP1;P1;durP2;ratioP2;P2;SDS_P1;SDS_P2;PMS_P1;PMS_P2;Temp;Humidity;BMP_temperature;BMP_pressure;BME280_temperature;BME280_humidity;BME280_pressure;Samples;Min_cycle;Max_cycle;Signal;HPM_P1;HPM_P2
2023/01/11 00:01:07;;;;;;;;;;;8.80;99.90;;;;;;5014037;28;20405;-80
2023/01/11 00:03:33;;;;;;;;;;;8.90;99.90;;;;;;5014045;28;20318;-80
2023/01/11 00:05:58;;;;;;;;;;;8.90;99.90;;;;;;5013915;28;19909;-79
2023/01/11 00:08:25;;;;;;;;;;;8.90;99.90;;;;;;5013729;28;19909;-79
2023/01/11 00:10:50;;;;;;;;;;;9.00;99.90;;;;;;5013404;28;20402;-80
2023/01/11 00:13:16;;;;;;;;;;;9.10;99.90;;;;;;5028733;28;19948;-80
2023/01/11 00:15:41;;;;;;;;;;;9.10;99.90;;;;;;5013604;28;20012;-79
2023/01/11 00:18:07;;;;;;;;;;;9.20;99.90;;;;;;5013779;28;19909;-80
2023/01/11 00:20:33;;;;;;;;;;;9.30;99.90;;;;;;5013499;28;19910;-81
2023/01/11 00:22:58;;;;;;;;;;;9.30;99.90;;;;;;5013194;28;19975;-80
2023/01/11 00:25:24;;;;;;;;;;;9.40;99.90;;;;;;5013855;28;19917;-81
2023/01/11 00:27:50;;;;;;;;;;;9.50;99.90;;;;;;5018132;28;19921;-81
2023/01/11 00:30:16;;;;;;;;;;;9.50;99.90;;;;;;5018360;28;19918;-81
2023/01/11 00:32:41;;;;;;;;;;;9.60;99.90;;;;;;5018597;28;19936;-81
2023/01/11 00:35:07;;;;;;;;;;;9.60;99.90;;;;;;5018770;28;20200;-80
2023/01/11 00:37:32;;;;;;;;;;;9.60;99.90;;;;;;5017445;28;19914;-81
2023/01/11 00:39:58;;;;;;;;;;;9.60;99.90;;;;;;5018727;28;19910;-82
2023/01/11 00:47:59;;;;;;;;;;;9.70;99.90;;;;;;5019436;28;19979;-81
2023/01/11 00:50:26;;;;;;;;;;;9.70;99.90;;;;;;5033564;28;19997;-81
2023/01/11 00:52:51;;;;;;;;;;;9.70;99.90;;;;;;5016711;28;19992;-81
2023/01/11 00:55:17;;;;;;;;;;;9.70;99.90;;;;;;5018442;28;19968;-80
2023/01/11 00:57:43;;;;;;;;;;;9.70;99.90;;;;;;5018225;28;19909;-81
2023/01/11 01:00:08;;;;;;;;;;;9.70;99.90;;;;;;5018129;28;19917;-81
2023/01/11 01:02:34;;;;;;;;;;;9.70;99.90;;;;;;5018297;28;20368;-81
2023/01/11 01:04:59;;;;;;;;;;;9.70;99.90;;;;;;5018287;28;20303;-81
2023/01/11 01:07:25;;;;;;;;;;;9.70;99.90;;;;;;5019048;28;19909;-80
2023/01/11 01:09:50;;;;;;;;;;;9.80;99.90;;;;;;5033595;28;20449;-82
2023/01/11 01:15:00;;;;;;;;;;;9.80;99.90;;;;;;5018554;28;19936;-81
2023/01/11 01:17:25;;;;;;;;;;;9.70;99.90;;;;;;5018404;28;19972;-81
2023/01/11 01:19:51;;;;;;;;;;;9.70;99.90;;;;;;5018466;28;20391;-81
2023/01/11 01:22:16;;;;;;;;;;;9.70;99.90;;;;;;5018807;28;19910;-80
2023/01/11 01:24:42;;;;;;;;;;;9.70;99.90;;;;;;5035947;28;19914;-79
2023/01/11 01:27:07;;;;;;;;;;;9.70;99.90;;;;;;5017647;28;19960;-80
2023/01/11 01:29:32;;;;;;;;;;;9.70;99.90;;;;;;5031965;28;19913;-79
2023/01/11 01:31:58;;;;;;;;;;;9.80;99.90;;;;;;5031720;28;19916;-80
2023/01/11 01:34:23;;;;;;;;;;;9.80;99.90;;;;;;5016884;28;19909;-79
2023/01/11 01:36:49;;;;;;;;;;;9.80;99.90;;;;;;5031699;28;19947;-79
2023/01/11 01:39:14;;;;;;;;;;;9.90;99.90;;;;;;5031793;28;19910;-79
2023/01/11 01:41:40;;;;;;;;;;;9.80;99.90;;;;;;5016391;28;19910;-79
2023/01/11 01:44:24;;;;;;;;;;;9.90;99.90;;;;;;5016620;28;19945;-80
2023/01/11 01:46:50;;;;;;;;;;;9.90;99.90;;;;;;5015085;28;19917;-80
2023/01/11 01:49:15;;;;;;;;;;;9.90;99.90;;;;;;5015340;28;20286;-79
2023/01/11 01:51:53;;;;;;;;;;;9.90;99.90;;;;;;5016221;28;19917;-79
2023/01/11 01:54:19;;;;;;;;;;;9.90;99.90;;;;;;5016613;28;19916;-79
2023/01/11 01:56:46;;;;;;;;;;;9.90;99.90;;;;;;5016285;28;19910;-79
2023/01/11 01:59:14;;;;;;;;;;;9.90;99.90;;;;;;5015137;28;20295;-80
2023/01/11 02:01:48;;;;;;;;;;;9.90;99.90;;;;;;5016009;28;19909;-79
2023/01/11 02:04:17;;;;;;;;;;;9.90;99.90;;;;;;5016343;28;20390;-80
2023/01/11 02:06:42;;;;;;;;;;;9.90;99.90;;;;;;5015944;28;19920;-79
2023/01/11 02:09:14;;;;;;;;;;;10.00;99.90;;;;;;5031529;28;20358;-79
2023/01/11 02:11:42;;;;;;;;;;;10.00;99.90;;;;;;5015733;28;19960;-80
2023/01/11 02:14:11;;;;;;;;;;;10.10;99.90;;;;;;5031485;28;20327;-79
2023/01/11 02:16:37;;;;;;;;;;;10.10;99.90;;;;;;5014825;28;20348;-80
2023/01/11 02:19:03;;;;;;;;;;;10.20;99.90;;;;;;5014746;28;19914;-79
2023/01/11 02:21:38;;;;;;;;;;;10.20;99.90;;;;;;5014214;28;19915;-80
2023/01/11 02:24:06;;;;;;;;;;;10.20;99.90;;;;;;5015825;28;20291;-79
2023/01/11 02:26:50;;;;;;;;;;;10.20;99.90;;;;;;5015696;28;20295;-79
2023/01/11 02:29:26;;;;;;;;;;;10.20;99.90;;;;;;5015898;28;19935;-79
2023/01/11 02:31:57;;;;;;;;;;;10.10;99.90;;;;;;5030628;28;19910;-79
2023/01/11 02:34:42;;;;;;;;;;;10.10;99.90;;;;;;5013916;28;19910;-79
2023/01/11 02:37:16;;;;;;;;;;;10.20;99.90;;;;;;5015442;28;20260;-79
2023/01/11 02:39:49;;;;;;;;;;;10.20;99.90;;;;;;5015665;28;20016;-79
2023/01/11 02:45:30;;;;;;;;;;;10.20;99.90;;;;;;5015372;28;19968;-80
2023/01/11 02:47:59;;;;;;;;;;;10.20;99.90;;;;;;5012703;28;20348;-79
2023/01/11 02:50:30;;;;;;;;;;;10.20;99.90;;;;;;5015243;28;20268;-79
2023/01/11 02:53:01;;;;;;;;;;;10.10;99.90;;;;;;5015009;28;19910;-80
2023/01/11 02:55:32;;;;;;;;;;;10.10;99.90;;;;;;5013859;28;19909;-79
2023/01/11 02:57:59;;;;;;;;;;;10.10;99.90;;;;;;5015041;28;20390;-80
2023/01/11 03:00:25;;;;;;;;;;;10.00;99.90;;;;;;5015155;28;19948;-79
2023/01/11 03:03:05;;;;;;;;;;;10.00;99.90;;;;;;5014993;28;19944;-79
2023/01/11 03:05:31;;;;;;;;;;;10.00;99.90;;;;;;5014849;28;19909;-79
2023/01/11 03:08:20;;;;;;;;;;;10.00;99.90;;;;;;5014976;28;20012;-79
2023/01/11 03:10:57;;;;;;;;;;;10.00;99.90;;;;;;5004685;28;20367;-80
2023/01/11 03:14:01;;;;;;;;;;;10.00;99.90;;;;;;5015065;28;19937;-79
2023/01/11 03:16:30;;;;;;;;;;;10.00;99.90;;;;;;4992774;28;20360;-79
2023/01/11 03:18:58;;;;;;;;;;;10.10;99.90;;;;;;4992888;28;19941;-80
2023/01/11 03:21:27;;;;;;;;;;;10.10;99.90;;;;;;5003741;28;19909;-80
2023/01/11 03:24:11;;;;;;;;;;;10.20;99.90;;;;;;5029853;28;19913;-79
2023/01/11 03:26:37;;;;;;;;;;;10.20;99.90;;;;;;5014683;28;19910;-79
2023/01/11 03:29:11;;;;;;;;;;;10.20;99.90;;;;;;5014441;28;19917;-79
2023/01/11 03:31:41;;;;;;;;;;;10.30;99.90;;;;;;5014250;28;19916;-79
2023/01/11 03:34:14;;;;;;;;;;;10.40;99.90;;;;;;5014427;28;20264;-80
2023/01/11 03:37:03;;;;;;;;;;;10.40;99.90;;;;;;5014449;28;19909;-79
2023/01/11 03:39:33;;;;;;;;;;;10.40;99.90;;;;;;5014583;28;20375;-79
2023/01/11 03:42:00;;;;;;;;;;;10.50;99.90;;;;;;5014016;28;19909;-80
2023/01/11 03:44:27;;;;;;;;;;;10.50;99.90;;;;;;5014273;28;19917;-79
2023/01/11 03:46:57;;;;;;;;;;;10.50;99.90;;;;;;5013277;28;19969;-79
2023/01/11 03:49:25;;;;;;;;;;;10.50;99.90;;;;;;5014143;28;20023;-79
2023/01/11 03:51:52;;;;;;;;;;;10.50;99.90;;;;;;5013874;28;20379;-79
2023/01/11 03:54:22;;;;;;;;;;;10.50;99.90;;;;;;5014355;28;19909;-79
2023/01/11 03:56:55;;;;;;;;;;;10.50;99.90;;;;;;5012562;28;19952;-79
2023/01/11 03:59:20;;;;;;;;;;;10.50;99.90;;;;;;5012988;28;19914;-79
2023/01/11 04:01:46;;;;;;;;;;;10.40;99.90;;;;;;5014027;28;19992;-79
2023/01/11 04:04:11;;;;;;;;;;;10.40;99.90;;;;;;5014025;28;19913;-80
2023/01/11 04:06:38;;;;;;;;;;;10.40;99.90;;;;;;5012708;28;19917;-79
2023/01/11 04:09:04;;;;;;;;;;;10.40;99.90;;;;;;5013704;28;19913;-82
2023/01/11 04:11:29;;;;;;;;;;;10.40;99.90;;;;;;5013576;28;20008;-79
2023/01/11 04:13:55;;;;;;;;;;;10.40;99.90;;;;;;5013655;28;19916;-79
2023/01/11 04:16:20;;;;;;;;;;;10.50;99.90;;;;;;5028669;28;19940;-80
2023/01/11 04:18:46;;;;;;;;;;;10.60;99.90;;;;;;5028572;28;20000;-81
2023/01/11 04:21:11;;;;;;;;;;;10.70;99.90;;;;;;5013287;28;19917;-80
2023/01/11 04:23:37;;;;;;;;;;;10.70;99.90;;;;;;5013446;28;20364;-80
2023/01/11 04:26:02;;;;;;;;;;;10.80;99.90;;;;;;5013317;28;19913;-81
2023/01/11 04:28:27;;;;;;;;;;;10.90;99.90;;;;;;5013748;28;20356;-81
2023/01/11 04:30:53;;;;;;;;;;;10.90;99.90;;;;;;5029447;28;19909;-81
2023/01/11 04:33:18;;;;;;;;;;;10.90;99.90;;;;;;5013890;28;19932;-80
2023/01/11 04:35:44;;;;;;;;;;;10.90;99.90;;;;;;5013490;28;19917;-81
2023/01/11 04:38:10;;;;;;;;;;;11.00;99.90;;;;;;5013729;28;19913;-81
2023/01/11 04:40:35;;;;;;;;;;;11.00;99.90;;;;;;5013452;28;19917;-81
2023/01/11 04:43:01;;;;;;;;;;;11.00;99.90;;;;;;5028452;28;19914;-81
2023/01/11 04:45:27;;;;;;;;;;;11.00;99.90;;;;;;5013236;28;19925;-82
2023/01/11 04:47:54;;;;;;;;;;;11.10;99.90;;;;;;5011915;28;19954;-81
2023/01/11 04:52:58;;;;;;;;;;;11.10;99.90;;;;;;5070868;28;19928;-82
2023/01/11 04:55:24;;;;;;;;;;;11.10;99.90;;;;;;5072369;28;19909;-82
2023/01/11 04:57:49;;;;;;;;;;;11.10;99.90;;;;;;5070977;28;20324;-81
2023/01/11 05:00:15;;;;;;;;;;;11.10;99.90;;;;;;5071100;28;19909;-82
2023/01/11 05:02:40;;;;;;;;;;;11.10;99.90;;;;;;5072044;28;19909;-81
2023/01/11 05:05:06;;;;;;;;;;;11.10;99.90;;;;;;5071150;28;19933;-82
2023/01/11 05:07:32;;;;;;;;;;;11.10;99.90;;;;;;5072388;28;20003;-82
2023/01/11 05:09:57;;;;;;;;;;;11.10;99.90;;;;;;5072309;28;19916;-82
2023/01/11 05:12:23;;;;;;;;;;;11.00;99.90;;;;;;5070735;28;19912;-81
2023/01/11 05:14:48;;;;;;;;;;;11.00;99.90;;;;;;5071032;28;19961;-82
2023/01/11 05:17:14;;;;;;;;;;;11.00;99.90;;;;;;5070853;28;19912;-81
2023/01/11 05:19:40;;;;;;;;;;;11.10;99.90;;;;;;5072280;28;19995;-82
2023/01/11 05:22:05;;;;;;;;;;;11.00;99.90;;;;;;5071903;28;19908;-81
2023/01/11 05:24:31;;;;;;;;;;;11.00;99.90;;;;;;5070975;28;20254;-81
2023/01/11 05:26:56;;;;;;;;;;;11.00;99.90;;;;;;5071097;28;19936;-82
2023/01/11 05:29:22;;;;;;;;;;;11.00;99.90;;;;;;5072054;28;19916;-81
2023/01/11 05:31:47;;;;;;;;;;;11.00;99.90;;;;;;5070500;28;19955;-83
2023/01/11 05:34:13;;;;;;;;;;;11.10;99.90;;;;;;5072088;28;20015;-81
2023/01/11 05:36:42;;;;;;;;;;;11.10;99.90;;;;;;5072148;28;19909;-82
2023/01/11 05:39:09;;;;;;;;;;;11.10;99.90;;;;;;5072062;28;20316;-82
2023/01/11 05:41:34;;;;;;;;;;;11.10;99.90;;;;;;5070336;28;20325;-83
2023/01/11 05:46:44;;;;;;;;;;;11.20;99.90;;;;;;5072343;28;19934;-82
2023/01/11 05:49:11;;;;;;;;;;;11.20;99.90;;;;;;5071905;28;19916;-82
2023/01/11 05:51:37;;;;;;;;;;;11.20;99.90;;;;;;5070138;28;19916;-82
2023/01/11 05:54:03;;;;;;;;;;;11.20;99.90;;;;;;5070644;28;20422;-82
2023/01/11 05:56:29;;;;;;;;;;;11.20;99.90;;;;;;5071983;28;19916;-82
2023/01/11 05:58:54;;;;;;;;;;;11.20;99.90;;;;;;5070568;28;20277;-82
2023/01/11 06:01:21;;;;;;;;;;;11.20;99.90;;;;;;5070241;28;19916;-82
2023/01/11 06:03:47;;;;;;;;;;;11.20;99.90;;;;;;5071779;28;19950;-82
2023/01/11 06:06:13;;;;;;;;;;;11.20;99.90;;;;;;5070562;28;19912;-82
2023/01/11 06:08:38;;;;;;;;;;;11.20;99.90;;;;;;5071782;28;19915;-83
2023/01/11 06:11:04;;;;;;;;;;;11.20;99.90;;;;;;5074717;28;19908;-83
2023/01/11 06:13:29;;;;;;;;;;;11.30;99.90;;;;;;5075292;28;19908;-83
2023/01/11 06:15:55;;;;;;;;;;;11.30;99.90;;;;;;5073843;28;19908;-82
2023/01/11 06:18:20;;;;;;;;;;;11.30;99.90;;;;;;5074153;28;19958;-83
2023/01/11 06:20:49;;;;;;;;;;;11.30;99.90;;;;;;5073976;28;19970;-82
2023/01/11 06:23:15;;;;;;;;;;;11.40;99.90;;;;;;5090728;28;20457;-82
2023/01/11 06:25:40;;;;;;;;;;;11.40;99.90;;;;;;5090696;28;19959;-83
2023/01/11 06:28:06;;;;;;;;;;;11.40;99.90;;;;;;5073832;28;20003;-82
2023/01/11 06:30:31;;;;;;;;;;;11.40;99.90;;;;;;5074931;28;19916;-82
2023/01/11 06:33:04;;;;;;;;;;;11.40;99.90;;;;;;5073538;28;19958;-83
2023/01/11 06:35:36;;;;;;;;;;;11.40;99.90;;;;;;5073665;28;19909;-82
2023/01/11 06:38:01;;;;;;;;;;;11.40;99.90;;;;;;5075109;28;19908;-84
2023/01/11 06:40:27;;;;;;;;;;;11.40;99.90;;;;;;5073687;28;19983;-83
2023/01/11 06:42:53;;;;;;;;;;;11.40;99.90;;;;;;5073500;28;19952;-83
2023/01/11 06:45:18;;;;;;;;;;;11.40;99.90;;;;;;5073537;28;19915;-83
2023/01/11 06:47:43;;;;;;;;;;;11.40;99.90;;;;;;5073568;28;19920;-82
2023/01/11 06:50:09;;;;;;;;;;;11.40;99.90;;;;;;5074697;28;20333;-83
2023/01/11 06:52:35;;;;;;;;;;;11.30;99.90;;;;;;5074477;28;19916;-83
2023/01/11 06:55:01;;;;;;;;;;;11.30;99.90;;;;;;5073400;28;19908;-82
2023/01/11 06:57:27;;;;;;;;;;;11.30;99.90;;;;;;5073423;28;19908;-83
2023/01/11 06:59:53;;;;;;;;;;;11.30;99.90;;;;;;5073485;28;19939;-83
2023/01/11 07:02:18;;;;;;;;;;;11.30;99.90;;;;;;5072984;28;20007;-84
2023/01/11 07:04:43;;;;;;;;;;;11.30;99.90;;;;;;5073345;28;19958;-83
2023/01/11 07:07:09;;;;;;;;;;;11.30;99.90;;;;;;5073332;28;19915;-84
2023/01/11 07:09:34;;;;;;;;;;;11.30;99.90;;;;;;5073413;28;19916;-83
2023/01/11 07:12:00;;;;;;;;;;;11.30;99.90;;;;;;5073220;28;19961;-84
2023/01/11 07:14:25;;;;;;;;;;;11.40;99.90;;;;;;5073319;28;19919;-84
2023/01/11 07:16:51;;;;;;;;;;;11.40;99.90;;;;;;5074693;28;19970;-84
2023/01/11 07:19:17;;;;;;;;;;;11.40;99.90;;;;;;5073542;28;19916;-84
2023/01/11 07:21:43;;;;;;;;;;;11.40;99.90;;;;;;5072637;28;20294;-84
2023/01/11 07:24:08;;;;;;;;;;;11.50;99.90;;;;;;5072898;28;19916;-83
2023/01/11 07:26:39;;;;;;;;;;;11.40;99.90;;;;;;5072764;28;19908;-83
2023/01/11 07:29:08;;;;;;;;;;;11.50;99.90;;;;;;5072545;28;19912;-84
2023/01/11 07:31:34;;;;;;;;;;;11.50;99.90;;;;;;5073878;28;20293;-84
2023/01/11 07:33:59;;;;;;;;;;;11.40;99.90;;;;;;5074313;28;19908;-84
2023/01/11 07:36:25;;;;;;;;;;;11.50;99.90;;;;;;5074653;28;19999;-83
2023/01/11 07:38:50;;;;;;;;;;;11.50;99.90;;;;;;5074287;28;19931;-84
2023/01/11 07:44:00;;;;;;;;;;;11.40;99.90;;;;;;5075351;28;19914;-84
2023/01/11 07:46:26;;;;;;;;;;;11.40;99.90;;;;;;5075028;28;19991;-84
2023/01/11 07:48:51;;;;;;;;;;;11.50;99.90;;;;;;5073814;28;19938;-83
2023/01/11 07:51:19;;;;;;;;;;;11.40;99.90;;;;;;5073300;28;19970;-84
2023/01/11 07:53:45;;;;;;;;;;;11.40;99.90;;;;;;5073116;28;19956;-85
2023/01/11 07:56:11;;;;;;;;;;;11.40;99.90;;;;;;5073324;28;19947;-84
2023/01/11 07:58:37;;;;;;;;;;;11.40;99.90;;;;;;5089927;28;20290;-84
2023/01/11 08:01:02;;;;;;;;;;;11.40;99.90;;;;;;5072626;28;19920;-84
2023/01/11 08:03:28;;;;;;;;;;;11.40;99.90;;;;;;5072776;28;19909;-83
2023/01/11 08:05:53;;;;;;;;;;;11.40;99.90;;;;;;5073541;28;19909;-84
2023/01/11 08:08:19;;;;;;;;;;;11.40;99.90;;;;;;5072627;28;19915;-84
2023/01/11 08:10:44;;;;;;;;;;;11.40;99.90;;;;;;5072379;28;19913;-84
2023/01/11 08:15:56;;;;;;;;;;;11.40;99.90;;;;;;5074236;28;20380;-84
2023/01/11 08:18:21;;;;;;;;;;;11.30;99.90;;;;;;5072232;28;19958;-84
2023/01/11 08:20:50;;;;;;;;;;;11.40;99.90;;;;;;5073339;28;19912;-84
2023/01/11 08:23:15;;;;;;;;;;;11.40;99.90;;;;;;5072036;28;19915;-84
2023/01/11 08:25:41;;;;;;;;;;;11.40;99.90;;;;;;5072028;28;19909;-84
2023/01/11 08:28:06;;;;;;;;;;;11.40;99.90;;;;;;5072186;28;19917;-84
2023/01/11 08:30:32;;;;;;;;;;;11.40;99.90;;;;;;5071585;28;19917;-83
2023/01/11 08:32:59;;;;;;;;;;;11.30;99.90;;;;;;5070976;28;19912;-83
2023/01/11 08:35:25;;;;;;;;;;;11.40;99.90;;;;;;5088437;28;20012;-82
2023/01/11 08:37:50;;;;;;;;;;;11.40;99.90;;;;;;5071694;28;19944;-84
2023/01/11 08:40:16;;;;;;;;;;;11.40;99.90;;;;;;5071577;28;20369;-83
2023/01/11 08:42:41;;;;;;;;;;;11.50;99.90;;;;;;5072402;28;19909;-82
2023/01/11 08:45:07;;;;;;;;;;;11.50;99.90;;;;;;5072081;28;19998;-82
2023/01/11 08:47:32;;;;;;;;;;;11.50;99.90;;;;;;5077708;28;19923;-82
2023/01/11 08:49:58;;;;;;;;;;;11.60;99.90;;;;;;5078385;28;19919;-82
2023/01/11 08:52:23;;;;;;;;;;;11.60;99.90;;;;;;5071737;28;19916;-84
2023/01/11 08:54:49;;;;;;;;;;;11.50;99.90;;;;;;5072791;28;19916;-82
2023/01/11 08:57:14;;;;;;;;;;;11.60;99.90;;;;;;5071404;28;20030;-84
2023/01/11 08:59:40;;;;;;;;;;;11.60;99.90;;;;;;5071287;28;19951;-83
2023/01/11 09:02:06;;;;;;;;;;;11.60;99.90;;;;;;5071070;28;19931;-82
2023/01/11 09:04:32;;;;;;;;;;;11.60;99.90;;;;;;5072752;28;19908;-82
2023/01/11 09:06:58;;;;;;;;;;;11.60;99.90;;;;;;5073049;28;20317;-83
2023/01/11 09:09:24;;;;;;;;;;;11.60;99.90;;;;;;5088491;28;19912;-82
2023/01/11 09:11:56;;;;;;;;;;;11.60;99.90;;;;;;5071286;28;20262;-82
2023/01/11 09:14:23;;;;;;;;;;;11.60;99.90;;;;;;5072995;28;19954;-82
2023/01/11 09:16:49;;;;;;;;;;;11.50;99.90;;;;;;5071408;28;19908;-82
2023/01/11 09:19:15;;;;;;;;;;;11.50;99.90;;;;;;5072688;28;19909;-83
2023/01/11 09:21:40;;;;;;;;;;;11.60;99.90;;;;;;5071101;28;20011;-84
2023/01/11 09:24:06;;;;;;;;;;;11.50;99.90;;;;;;5071351;28;19914;-84
2023/01/11 09:26:31;;;;;;;;;;;11.30;99.90;;;;;;5070197;28;19995;-85
2023/01/11 09:28:57;;;;;;;;;;;11.30;99.90;;;;;;5066269;28;19917;-85
2023/01/11 09:31:22;;;;;;;;;;;11.20;99.90;;;;;;5070641;28;20408;-85
2023/01/11 09:33:48;;;;;;;;;;;11.20;99.90;;;;;;5070967;28;19909;-85
2023/01/11 09:36:13;;;;;;;;;;;11.20;99.90;;;;;;5072284;28;19916;-84
2023/01/11 09:38:42;;;;;;;;;;;11.20;99.90;;;;;;5070976;28;19947;-85
2023/01/11 09:41:09;;;;;;;;;;;11.20;99.90;;;;;;5070534;28;19947;-86
2023/01/11 09:43:38;;;;;;;;;;;11.10;99.90;;;;;;5068115;28;20377;-85
2023/01/11 09:46:07;;;;;;;;;;;11.10;99.90;;;;;;5073476;28;20286;-85
2023/01/11 09:48:42;;;;;;;;;;;11.10;99.90;;;;;;5076247;28;19977;-85
2023/01/11 09:51:11;;;;;;;;;;;11.10;99.90;;;;;;5074185;28;19916;-83
2023/01/11 09:53:37;;;;;;;;;;;11.10;99.90;;;;;;5074023;28;19932;-83
2023/01/11 09:56:05;;;;;;;;;;;11.00;99.90;;;;;;5075814;28;19913;-83
2023/01/11 09:58:31;;;;;;;;;;;10.90;99.90;;;;;;5074615;28;19909;-83
2023/01/11 10:00:58;;;;;;;;;;;10.90;99.90;;;;;;5074401;28;19947;-83
2023/01/11 10:03:26;;;;;;;;;;;10.90;99.90;;;;;;5074627;28;19908;-83
2023/01/11 10:05:55;;;;;;;;;;;10.90;99.90;;;;;;5075686;28;19961;-84
2023/01/11 10:08:39;;;;;;;;;;;10.90;99.90;;;;;;5074686;28;19931;-84
2023/01/11 10:11:05;;;;;;;;;;;10.90;99.90;;;;;;5074497;28;19923;-85
2023/01/11 10:13:31;;;;;;;;;;;10.90;99.90;;;;;;5075647;28;19908;-84
2023/01/11 10:16:07;;;;;;;;;;;10.90;99.90;;;;;;5074357;28;19944;-84
2023/01/11 10:18:47;;;;;;;;;;;10.90;99.90;;;;;;5074261;28;19912;-84
2023/01/11 10:21:16;;;;;;;;;;;10.90;99.90;;;;;;5074283;28;20416;-84
2023/01/11 10:23:48;;;;;;;;;;;10.90;99.90;;;;;;5074076;28;19908;-84
2023/01/11 10:26:31;;;;;;;;;;;11.00;99.90;;;;;;5075587;28;19953;-84
2023/01/11 10:30:11;;;;;;;;;;;10.90;99.90;;;;;;5077069;28;19913;-84
2023/01/11 10:37:25;;;;;;;;;;;10.90;99.90;;;;;;5076016;28;20362;-83
2023/01/11 10:43:19;;;;;;;;;;;11.00;99.90;;;;;;5063665;28;19947;-84
2023/01/11 10:45:49;;;;;;;;;;;11.00;99.90;;;;;;5073757;28;19948;-84
2023/01/11 10:48:35;;;;;;;;;;;11.00;99.90;;;;;;5073600;28;20003;-84
2023/01/11 10:51:10;;;;;;;;;;;11.00;99.90;;;;;;5081978;22;19916;-84
2023/01/11 10:53:39;;;;;;;;;;;11.00;99.90;;;;;;5073598;28;20332;-83
2023/01/11 10:56:19;;;;;;;;;;;11.00;99.90;;;;;;5074494;28;19951;-84
2023/01/11 10:58:57;;;;;;;;;;;11.10;99.90;;;;;;5074640;28;20408;-83
2023/01/11 11:01:44;;;;;;;;;;;11.10;99.90;;;;;;5092409;28;19931;-84
2023/01/11 11:04:25;;;;;;;;;;;11.00;99.90;;;;;;5074266;28;20369;-84
2023/01/11 11:06:56;;;;;;;;;;;11.10;99.90;;;;;;5073883;28;19931;-83
2023/01/11 11:09:21;;;;;;;;;;;11.10;99.90;;;;;;5075110;28;20340;-83
2023/01/11 11:11:53;;;;;;;;;;;11.00;99.90;;;;;;5073263;28;19909;-84
2023/01/11 11:14:20;;;;;;;;;;;11.10;99.90;;;;;;5073849;28;19995;-83
2023/01/11 11:16:57;;;;;;;;;;;11.10;99.90;;;;;;5073590;28;20281;-83
2023/01/11 11:19:24;;;;;;;;;;;11.10;99.90;;;;;;5073771;28;20281;-83
2023/01/11 11:21:51;;;;;;;;;;;11.10;99.90;;;;;;5074262;28;19985;-83
2023/01/11 11:24:31;;;;;;;;;;;11.10;99.90;;;;;;5073326;28;20054;-83
2023/01/11 11:27:18;;;;;;;;;;;11.20;99.90;;;;;;5073010;28;19916;-83
2023/01/11 11:29:49;;;;;;;;;;;11.20;99.90;;;;;;5072755;28;19912;-83
2023/01/11 11:32:20;;;;;;;;;;;11.10;99.90;;;;;;5072405;28;19966;-83
2023/01/11 11:34:46;;;;;;;;;;;11.20;99.90;;;;;;5089488;28;19908;-83
2023/01/11 11:37:19;;;;;;;;;;;11.30;99.90;;;;;;5072551;28;19935;-83
2023/01/11 11:39:46;;;;;;;;;;;11.50;99.90;;;;;;5072465;28;19908;-83
2023/01/11 11:42:16;;;;;;;;;;;11.80;99.90;;;;;;5072076;28;20352;-83
2023/01/11 11:44:41;;;;;;;;;;;12.20;99.90;;;;;;5089249;28;19920;-83
2023/01/11 11:47:14;;;;;;;;;;;12.40;99.90;;;;;;5072341;28;19908;-83
2023/01/11 11:49:40;;;;;;;;;;;12.80;99.90;;;;;;5073511;28;19920;-83
2023/01/11 11:52:10;;;;;;;;;;;13.80;99.90;;;;;;5071661;28;20001;-84
2023/01/11 11:54:39;;;;;;;;;;;15.00;99.90;;;;;;5073360;28;20004;-83
2023/01/11 11:57:15;;;;;;;;;;;15.80;99.90;;;;;;5072058;28;19909;-83
2023/01/11 11:59:46;;;;;;;;;;;15.90;99.90;;;;;;5072056;28;19913;-83
2023/01/11 12:02:22;;;;;;;;;;;16.90;99.90;;;;;;5072940;28;19912;-83
2023/01/11 12:04:49;;;;;;;;;;;18.10;99.90;;;;;;5088969;28;20046;-83
2023/01/11 12:07:21;;;;;;;;;;;18.00;99.90;;;;;;5088290;28;19966;-83
2023/01/11 12:09:48;;;;;;;;;;;18.20;99.90;;;;;;5072992;28;20018;-84
2023/01/11 12:12:19;;;;;;;;;;;17.70;99.90;;;;;;5072737;28;19908;-83
2023/01/11 12:15:03;;;;;;;;;;;17.30;99.90;;;;;;5072400;28;20275;-83
2023/01/11 12:17:29;;;;;;;;;;;16.20;99.90;;;;;;5072027;28;19909;-82
2023/01/11 12:19:54;;;;;;;;;;;16.10;99.90;;;;;;5072125;28;19915;-83
2023/01/11 12:22:24;;;;;;;;;;;16.10;99.90;;;;;;5071549;28;19912;-82
2023/01/11 12:25:04;;;;;;;;;;;16.30;99.90;;;;;;5071645;28;19912;-83
2023/01/11 12:27:39;;;;;;;;;;;16.40;99.90;;;;;;5071575;28;20007;-83
2023/01/11 12:30:21;;;;;;;;;;;16.30;99.90;;;;;;5072675;28;19916;-82
2023/01/11 12:32:47;;;;;;;;;;;16.30;99.90;;;;;;5072608;28;19909;-82
2023/01/11 12:35:17;;;;;;;;;;;16.40;99.90;;;;;;5071488;28;20388;-82
2023/01/11 12:37:42;;;;;;;;;;;16.80;99.90;;;;;;5072808;28;19908;-82
2023/01/11 12:40:26;;;;;;;;;;;17.30;99.90;;;;;;5072701;28;19909;-82
2023/01/11 12:43:10;;;;;;;;;;;17.30;99.90;;;;;;5071219;28;19916;-82
2023/01/11 12:45:48;;;;;;;;;;;17.60;99.90;;;;;;5072774;28;19909;-82
2023/01/11 12:48:22;;;;;;;;;;;18.20;99.90;;;;;;5071380;28;19915;-83
2023/01/11 12:50:53;;;;;;;;;;;17.80;99.90;;;;;;5071285;28;19912;-82
2023/01/11 12:53:22;;;;;;;;;;;16.80;99.90;;;;;;5071224;28;19991;-82
2023/01/11 12:56:06;;;;;;;;;;;16.10;99.90;;;;;;5071240;28;19908;-82
2023/01/11 12:58:35;;;;;;;;;;;15.90;99.90;;;;;;5071131;28;20392;-82
2023/01/11 13:01:07;;;;;;;;;;;17.00;99.90;;;;;;5072224;28;20285;-81
2023/01/11 13:03:44;;;;;;;;;;;18.00;99.90;;;;;;5072462;28;20334;-82
2023/01/11 13:06:09;;;;;;;;;;;19.00;99.90;;;;;;5071418;28;20362;-82
2023/01/11 13:08:43;;;;;;;;;;;20.00;99.90;;;;;;5072869;28;19915;-82
2023/01/11 13:11:08;;;;;;;;;;;20.70;99.90;;;;;;5072108;28;19912;-82
2023/01/11 13:13:52;;;;;;;;;;;21.60;99.90;;;;;;5072417;28;19916;-82
2023/01/11 13:16:32;;;;;;;;;;;22.40;97.80;;;;;;5072354;28;19909;-82
2023/01/11 13:19:02;;;;;;;;;;;21.90;93.00;;;;;;5074373;28;20392;-83
2023/01/11 13:21:30;;;;;;;;;;;20.90;93.10;;;;;;5074904;28;19931;-82
2023/01/11 13:23:57;;;;;;;;;;;19.90;94.70;;;;;;5076370;28;19908;-81
2023/01/11 13:26:25;;;;;;;;;;;18.80;95.80;;;;;;5076288;28;19912;-81
2023/01/11 13:28:58;;;;;;;;;;;17.80;99.90;;;;;;5076142;28;20392;-81
2023/01/11 13:31:24;;;;;;;;;;;17.30;99.90;;;;;;5075965;28;19909;-81
2023/01/11 13:33:53;;;;;;;;;;;17.60;99.90;;;;;;5076143;28;20360;-81
2023/01/11 13:36:22;;;;;;;;;;;17.90;99.90;;;;;;5076067;28;19909;-82
2023/01/11 13:38:52;;;;;;;;;;;17.50;99.90;;;;;;5075931;28;19935;-82
2023/01/11 13:41:23;;;;;;;;;;;17.50;99.90;;;;;;5075754;28;20003;-81
2023/01/11 13:43:52;;;;;;;;;;;17.40;99.90;;;;;;5075970;28;19909;-82
2023/01/11 13:46:26;;;;;;;;;;;16.80;99.90;;;;;;5074587;28;19915;-82
2023/01/11 13:48:59;;;;;;;;;;;16.20;99.90;;;;;;5074475;28;19908;-81
2023/01/11 13:51:28;;;;;;;;;;;15.70;99.90;;;;;;5073977;28;19939;-81
2023/01/11 13:54:04;;;;;;;;;;;15.70;99.90;;;;;;5075830;28;19908;-81
2023/01/11 13:56:29;;;;;;;;;;;15.50;99.90;;;;;;5075781;28;20004;-81
2023/01/11 13:59:13;;;;;;;;;;;15.30;99.90;;;;;;5075656;28;20026;-81
2023/01/11 14:01:54;;;;;;;;;;;14.80;99.90;;;;;;5075188;28;19915;-81
2023/01/11 14:04:24;;;;;;;;;;;14.60;99.90;;;;;;5075424;28;19954;-81
2023/01/11 14:07:12;;;;;;;;;;;14.40;99.90;;;;;;5075579;28;19947;-81
2023/01/11 14:09:50;;;;;;;;;;;14.00;99.90;;;;;;5075253;28;19913;-81
2023/01/11 14:12:45;;;;;;;;;;;14.10;99.90;;;;;;5073926;28;19909;-82
2023/01/11 14:15:19;;;;;;;;;;;14.10;99.90;;;;;;5057839;28;19934;-81
2023/01/11 14:17:47;;;;;;;;;;;14.00;99.90;;;;;;5074390;28;19958;-81
2023/01/11 14:20:13;;;;;;;;;;;14.00;99.90;;;;;;5075192;28;19971;-81
2023/01/11 14:23:03;;;;;;;;;;;13.90;99.90;;;;;;5073551;28;19951;-81
2023/01/11 14:25:35;;;;;;;;;;;13.70;99.90;;;;;;5075231;28;19909;-81
2023/01/11 14:28:21;;;;;;;;;;;13.70;99.90;;;;;;5075151;28;19965;-81
2023/01/11 14:30:56;;;;;;;;;;;13.50;99.90;;;;;;5060080;28;19958;-81
2023/01/11 14:33:40;;;;;;;;;;;13.50;99.90;;;;;;5073793;28;19969;-81
2023/01/11 14:36:24;;;;;;;;;;;13.40;99.90;;;;;;5073984;28;19916;-81
2023/01/11 14:38:59;;;;;;;;;;;13.20;99.90;;;;;;5075164;28;19909;-81
2023/01/11 14:41:43;;;;;;;;;;;13.20;99.90;;;;;;5074752;28;19908;-81
2023/01/11 14:44:23;;;;;;;;;;;13.10;99.90;;;;;;5075145;28;19995;-80
2023/01/11 14:46:52;;;;;;;;;;;12.90;99.90;;;;;;5074973;28;20289;-81
2023/01/11 14:49:35;;;;;;;;;;;12.80;99.90;;;;;;5074732;28;19912;-80
2023/01/11 14:52:05;;;;;;;;;;;12.70;99.90;;;;;;5074331;28;20389;-81
2023/01/11 14:54:36;;;;;;;;;;;12.50;99.90;;;;;;5073498;28;19939;-81
2023/01/11 14:57:01;;;;;;;;;;;12.30;99.90;;;;;;5074753;28;19915;-81
2023/01/11 14:59:30;;;;;;;;;;;12.00;99.90;;;;;;5074705;28;19908;-81
2023/01/11 15:02:04;;;;;;;;;;;12.00;99.90;;;;;;5074254;28;20336;-81